Time;durP1;ratioP1;P1;durP2;ratioP2;P2;SDS_P1;SDS_P2;PMS_P1;PMS_P2;Temp;Humidity;BMP_temperature;BMP_pressure;BME280_temperature;BME280_humidity;BME280_pressure;Samples;Min_cycle;Max_cycle;Signal;HPM_P1;HPM_P2
2022/01/09 00:02:02;;;;;;;17.27;13.60;;;4.30;99.90;;;;;;5071677;28;20051;-67
2022/01/09 00:04:28;;;;;;;20.60;15.70;;;4.30;99.90;;;;;;5074289;28;20053;-67
2022/01/09 00:06:54;;;;;;;19.10;15.10;;;4.30;99.90;;;;;;5055871;28;20071;-67
2022/01/09 00:09:19;;;;;;;15.85;12.77;;;4.30;99.90;;;;;;5073076;28;20071;-67
2022/01/09 00:11:45;;;;;;;17.25;14.18;;;4.30;99.90;;;;;;5073549;28;20438;-66
2022/01/09 00:14:10;;;;;;;15.18;11.52;;;4.30;99.90;;;;;;5073425;28;20055;-66
2022/01/09 00:16:36;;;;;;;18.95;14.88;;;4.30;99.90;;;;;;5054920;28;20083;-67
2022/01/09 00:19:02;;;;;;;17.65;13.45;;;4.30;99.90;;;;;;5074099;28;20124;-68
2022/01/09 00:21:27;;;;;;;16.13;13.07;;;4.30;99.90;;;;;;5060393;28;20496;-67
2022/01/09 00:23:53;;;;;;;19.08;13.98;;;4.20;99.90;;;;;;5069280;28;20056;-67
2022/01/09 00:26:19;;;;;;;19.02;15.32;;;4.20;99.90;;;;;;5068594;28;20048;-67
2022/01/09 00:28:44;;;;;;;21.00;15.70;;;4.20;99.90;;;;;;5052835;28;20048;-67
2022/01/09 00:31:10;;;;;;;20.35;15.15;;;4.20;99.90;;;;;;5051754;28;20407;-67
2022/01/09 00:33:35;;;;;;;19.45;14.57;;;4.30;99.90;;;;;;5069992;28;20105;-67
2022/01/09 00:36:01;;;;;;;19.30;14.57;;;4.20;99.90;;;;;;5069518;28;20377;-66
2022/01/09 00:38:27;;;;;;;19.17;14.88;;;4.20;99.90;;;;;;5070434;28;20052;-67
2022/01/09 00:40:52;;;;;;;20.17;15.30;;;4.20;99.90;;;;;;5070093;28;20127;-67
2022/01/09 00:43:18;;;;;;;19.88;15.73;;;4.20;99.90;;;;;;5070845;28;20120;-67
2022/01/09 00:45:43;;;;;;;21.13;15.82;;;4.20;99.90;;;;;;5069902;28;20098;-67
2022/01/09 00:48:10;;;;;;;20.10;14.93;;;4.20;99.90;;;;;;5069953;28;20040;-66
2022/01/09 00:50:36;;;;;;;17.80;14.07;;;4.20;99.90;;;;;;5051696;28;20057;-67
2022/01/09 00:53:08;;;;;;;19.88;14.48;;;4.20;99.90;;;;;;5051934;28;20413;-67
2022/01/09 00:55:34;;;;;;;17.70;13.48;;;4.20;99.90;;;;;;5051324;28;20060;-67
2022/01/09 00:57:59;;;;;;;20.38;14.35;;;4.30;99.90;;;;;;5029738;28;20046;-67
2022/01/09 01:00:25;;;;;;;19.60;14.90;;;4.30;99.90;;;;;;5044941;28;20052;-67
2022/01/09 01:02:51;;;;;;;21.27;16.08;;;4.30;99.90;;;;;;5068079;28;20048;-67
2022/01/09 01:05:17;;;;;;;17.95;13.73;;;4.30;99.90;;;;;;5055071;28;20053;-67
2022/01/09 01:07:42;;;;;;;17.63;14.18;;;4.30;99.90;;;;;;5050465;28;20052;-67
2022/01/09 01:10:08;;;;;;;17.25;13.13;;;4.20;99.90;;;;;;5037086;28;20492;-67
2022/01/09 01:12:34;;;;;;;20.23;15.32;;;4.30;99.90;;;;;;5068873;28;20134;-67
2022/01/09 01:15:00;;;;;;;20.08;15.30;;;4.30;99.90;;;;;;5052844;28;20088;-67
2022/01/09 01:17:25;;;;;;;20.60;15.43;;;4.90;99.90;;;;;;5034068;28;20049;-67
2022/01/09 01:19:53;;;;;;;19.48;14.48;;;4.30;99.90;;;;;;5048964;28;20087;-66
2022/01/09 01:22:19;;;;;;;17.17;13.88;;;4.30;99.90;;;;;;5046788;28;20053;-67
2022/01/09 01:24:46;;;;;;;17.58;13.35;;;4.30;99.90;;;;;;5067865;28;20052;-67
2022/01/09 01:27:12;;;;;;;16.88;13.63;;;4.40;99.90;;;;;;5048971;28;20053;-67
2022/01/09 01:29:38;;;;;;;21.05;16.17;;;4.40;99.90;;;;;;5049832;28;20044;-66
2022/01/09 01:32:04;;;;;;;20.58;14.93;;;4.30;99.90;;;;;;5029655;28;20059;-67
2022/01/09 01:34:30;;;;;;;20.77;15.32;;;4.30;99.90;;;;;;5031637;28;20053;-67
2022/01/09 01:36:56;;;;;;;23.25;16.52;;;4.40;99.90;;;;;;5051289;28;20056;-67
2022/01/09 01:39:22;;;;;;;19.77;15.45;;;4.30;99.90;;;;;;5050381;28;20047;-67
2022/01/09 01:41:48;;;;;;;22.77;16.90;;;4.30;99.90;;;;;;5051325;28;20504;-67
2022/01/09 01:44:15;;;;;;;18.90;14.52;;;4.40;99.90;;;;;;5053947;28;20049;-67
2022/01/09 01:46:41;;;;;;;19.95;15.38;;;4.40;99.90;;;;;;5014856;28;20089;-67
2022/01/09 01:49:10;;;;;;;19.63;15.00;;;5.10;99.90;;;;;;5069354;28;20483;-67
2022/01/09 01:51:38;;;;;;;19.65;14.60;;;4.40;99.90;;;;;;5068639;28;20056;-67
2022/01/09 01:54:04;;;;;;;21.63;15.45;;;4.40;99.90;;;;;;5067434;28;20052;-67
2022/01/09 01:56:30;;;;;;;22.15;15.95;;;4.40;99.90;;;;;;5050712;28;20060;-67
2022/01/09 01:58:56;;;;;;;19.67;15.32;;;4.40;99.90;;;;;;5068826;28;20067;-67
2022/01/09 02:01:22;;;;;;;23.52;16.65;;;4.40;99.90;;;;;;5066510;28;20075;-67
2022/01/09 02:03:47;;;;;;;20.92;15.05;;;4.40;99.90;;;;;;5051678;28;20040;-67
2022/01/09 02:06:16;;;;;;;20.95;15.90;;;4.50;99.90;;;;;;5068347;28;20052;-67
2022/01/09 02:08:43;;;;;;;22.88;15.68;;;4.40;99.90;;;;;;5068336;28;20048;-66
2022/01/09 02:11:11;;;;;;;22.05;14.80;;;4.50;99.90;;;;;;5059248;28;20048;-67
2022/01/09 02:13:40;;;;;;;21.40;15.55;;;4.50;99.90;;;;;;5069121;28;20113;-67
2022/01/09 02:16:07;;;;;;;22.25;15.77;;;4.50;99.90;;;;;;5066869;28;20044;-67
2022/01/09 02:18:32;;;;;;;24.90;17.08;;;4.50;99.90;;;;;;5069033;28;20459;-67
2022/01/09 02:20:58;;;;;;;23.73;16.33;;;4.50;99.90;;;;;;5067749;28;20052;-67
2022/01/09 02:23:24;;;;;;;23.35;16.63;;;4.50;99.90;;;;;;5070264;28;20091;-67
2022/01/09 02:25:50;;;;;;;24.00;16.70;;;4.50;99.90;;;;;;5070081;28;20059;-67
2022/01/09 02:28:17;;;;;;;23.48;16.08;;;4.50;99.90;;;;;;5052119;28;20071;-67
2022/01/09 02:30:44;;;;;;;21.80;15.07;;;4.50;99.90;;;;;;5050547;28;20064;-68
2022/01/09 02:33:15;;;;;;;26.88;17.75;;;4.50;99.90;;;;;;5067014;28;20071;-67
2022/01/09 02:35:41;;;;;;;28.02;17.67;;;4.50;99.90;;;;;;5030499;28;20102;-66
2022/01/09 02:38:07;;;;;;;28.23;17.45;;;4.50;99.90;;;;;;5024409;28;20048;-67
2022/01/09 02:40:33;;;;;;;23.63;15.93;;;4.50;99.90;;;;;;5067400;28;20048;-67
2022/01/09 02:42:59;;;;;;;23.23;15.77;;;4.90;99.90;;;;;;5052952;28;20560;-67
2022/01/09 02:45:26;;;;;;;29.20;17.25;;;4.60;99.90;;;;;;5066426;28;20135;-67
2022/01/09 02:47:54;;;;;;;22.77;14.43;;;4.60;99.90;;;;;;5050804;28;20099;-67
2022/01/09 02:52:56;;;;;;;22.88;12.82;;;5.10;99.90;;;;;;5068664;28;20048;-67
2022/01/09 02:55:23;;;;;;;20.88;11.88;;;5.70;99.90;;;;;;5067938;28;20055;-67
2022/01/09 02:57:55;;;;;;;23.48;11.48;;;4.70;99.90;;;;;;5067432;28;20123;-67
2022/01/09 03:00:25;;;;;;;19.92;10.52;;;4.80;99.90;;;;;;5067986;28;20041;-65
2022/01/09 03:02:50;;;;;;;19.88;10.45;;;4.80;99.90;;;;;;5051671;28;20103;-66
2022/01/09 03:05:17;;;;;;;20.92;9.82;;;4.80;99.90;;;;;;5068526;28;20501;-66
2022/01/09 03:07:44;;;;;;;22.52;11.80;;;4.90;99.90;;;;;;5050960;28;20045;-66
2022/01/09 03:10:11;;;;;;;21.17;11.23;;;5.00;99.90;;;;;;5066897;28;21004;-66
2022/01/09 03:12:37;;;;;;;22.65;8.07;;;5.00;99.90;;;;;;5049849;28;20084;-65
2022/01/09 03:15:05;;;;;;;17.52;7.30;;;5.10;99.90;;;;;;5050688;28;20104;-66
2022/01/09 03:17:31;;;;;;;19.73;6.00;;;5.10;99.90;;;;;;5068151;28;20080;-66
2022/01/09 03:19:56;;;;;;;14.98;6.43;;;5.20;99.90;;;;;;5070207;28;20076;-66
2022/01/09 03:22:22;;;;;;;22.33;7.70;;;5.20;99.90;;;;;;5071404;28;20052;-66
2022/01/09 03:24:49;;;;;;;19.23;7.55;;;5.20;99.90;;;;;;5067053;28;20393;-66
2022/01/09 03:27:15;;;;;;;19.15;7.28;;;5.20;99.90;;;;;;5049952;28;20060;-66
2022/01/09 03:29:42;;;;;;;26.08;8.35;;;5.20;99.90;;;;;;5050014;28;20381;-66
2022/01/09 03:32:08;;;;;;;33.40;9.68;;;5.20;99.90;;;;;;5066508;28;20091;-66
2022/01/09 03:34:34;;;;;;;28.35;8.45;;;5.20;99.90;;;;;;5049292;28;20044;-66
2022/01/09 03:37:00;;;;;;;23.00;7.55;;;5.20;99.90;;;;;;5067115;28;20041;-66
2022/01/09 03:39:26;;;;;;;33.95;7.82;;;5.20;99.90;;;;;;5066499;28;20059;-66
2022/01/09 03:41:54;;;;;;;33.38;7.63;;;5.30;99.90;;;;;;5049763;28;20137;-66
2022/01/09 03:44:20;;;;;;;39.15;7.63;;;5.30;99.90;;;;;;5068081;28;20052;-66
2022/01/09 03:46:46;;;;;;;30.13;7.88;;;5.30;99.90;;;;;;5067279;28;20220;-66
2022/01/09 03:49:11;;;;;;;27.67;6.03;;;5.40;99.90;;;;;;5068678;28;20180;-66
2022/01/09 03:51:38;;;;;;;27.23;5.50;;;5.40;99.90;;;;;;5049040;28;20125;-66
2022/01/09 03:54:05;;;;;;;28.38;5.63;;;5.50;99.90;;;;;;5066610;28;20056;-66
2022/01/09 03:56:32;;;;;;;24.67;5.10;;;5.50;99.90;;;;;;5049354;28;20092;-66
2022/01/09 03:58:58;;;;;;;27.45;4.57;;;5.50;99.90;;;;;;5071432;28;20060;-66
2022/01/09 04:01:24;;;;;;;31.70;5.65;;;5.50;99.90;;;;;;5069823;28;20401;-66
2022/01/09 04:03:50;;;;;;;27.73;4.75;;;5.50;99.90;;;;;;5069034;28;20060;-67
2022/01/09 04:06:17;;;;;;;37.10;4.90;;;5.50;99.90;;;;;;5038256;28;20056;-67
2022/01/09 04:08:42;;;;;;;40.20;5.57;;;5.60;99.90;;;;;;5070981;28;20049;-66
2022/01/09 04:11:10;;;;;;;35.33;5.82;;;5.60;99.90;;;;;;5050897;28;20175;-67
2022/01/09 04:13:39;;;;;;;50.50;6.25;;;5.60;99.90;;;;;;5052325;28;20084;-66
2022/01/09 04:16:04;;;;;;;44.95;5.68;;;5.60;99.90;;;;;;5068049;28;20131;-66
2022/01/09 04:18:31;;;;;;;45.15;7.03;;;5.70;99.90;;;;;;5071361;28;20124;-66
2022/01/09 04:20:58;;;;;;;47.22;6.80;;;5.70;99.90;;;;;;5051372;28;20060;-66
2022/01/09 04:23:23;;;;;;;40.58;5.80;;;6.20;99.90;;;;;;5071281;28;20354;-66
2022/01/09 04:25:50;;;;;;;40.35;4.95;;;5.80;99.90;;;;;;5070526;28;20051;-66
2022/01/09 04:28:16;;;;;;;40.75;4.43;;;6.00;99.90;;;;;;5052294;28;20093;-66
2022/01/09 04:30:42;;;;;;;39.60;5.40;;;6.00;99.90;;;;;;5070887;28;20121;-67
2022/01/09 04:33:11;;;;;;;43.83;5.97;;;6.00;99.90;;;;;;5052338;28;20056;-66
2022/01/09 04:35:38;;;;;;;37.13;5.18;;;6.00;99.90;;;;;;5072564;28;20489;-65
2022/01/09 04:38:04;;;;;;;38.42;4.65;;;6.00;99.90;;;;;;5072400;28;20044;-65
2022/01/09 04:40:30;;;;;;;44.30;6.55;;;6.00;99.90;;;;;;5052912;28;20061;-65
2022/01/09 04:42:59;;;;;;;35.35;5.30;;;6.00;99.90;;;;;;5069353;28;20055;-67
2022/01/09 04:45:27;;;;;;;38.40;4.75;;;5.90;99.90;;;;;;5052343;28;20053;-66
2022/01/09 04:47:55;;;;;;;40.58;5.97;;;6.00;99.90;;;;;;5051295;28;20064;-65
2022/01/09 04:50:27;;;;;;;29.92;5.03;;;6.00;99.90;;;;;;5061512;28;20144;-65
2022/01/09 04:52:59;;;;;;;43.90;5.60;;;6.00;99.90;;;;;;5050155;28;20106;-65
2022/01/09 04:55:26;;;;;;;34.13;5.68;;;6.00;99.90;;;;;;5065060;28;20049;-65
2022/01/09 04:57:52;;;;;;;38.53;5.03;;;6.00;99.90;;;;;;5068912;28;20374;-66
2022/01/09 05:00:17;;;;;;;37.60;5.10;;;6.00;99.90;;;;;;5070131;28;20048;-65
2022/01/09 05:02:43;;;;;;;30.45;4.88;;;6.00;99.90;;;;;;5068771;28;20076;-65
2022/01/09 05:05:09;;;;;;;35.20;4.82;;;6.00;99.90;;;;;;5070642;28;20430;-65
2022/01/09 05:07:35;;;;;;;32.40;4.75;;;6.00;99.90;;;;;;5052160;28;20059;-66
2022/01/09 05:10:02;;;;;;;34.92;4.50;;;6.00;99.90;;;;;;5031292;28;20044;-66
2022/01/09 05:12:28;;;;;;;24.70;3.60;;;6.00;99.90;;;;;;5069857;28;20052;-66
2022/01/09 05:14:53;;;;;;;42.40;5.65;;;6.00;99.90;;;;;;5069233;28;20052;-66
2022/01/09 05:17:19;;;;;;;28.13;4.60;;;6.00;99.90;;;;;;5050749;28;20048;-65
2022/01/09 05:19:46;;;;;;;32.55;4.32;;;6.10;99.90;;;;;;5069852;28;20094;-66
2022/01/09 05:22:12;;;;;;;37.13;4.55;;;5.90;99.90;;;;;;5069189;28;20500;-66
2022/01/09 05:24:37;;;;;;;29.13;4.75;;;6.00;99.90;;;;;;5068636;28;20175;-66
2022/01/09 05:27:03;;;;;;;29.55;4.22;;;6.00;99.90;;;;;;5068936;28;20090;-66
2022/01/09 05:29:29;;;;;;;38.40;5.63;;;5.90;99.90;;;;;;5051855;28;20090;-66
2022/01/09 05:31:55;;;;;;;24.10;4.82;;;5.90;99.90;;;;;;5050387;28;20049;-66
2022/01/09 05:34:21;;;;;;;31.83;3.97;;;7.30;99.90;;;;;;5052981;28;20037;-66
2022/01/09 05:36:47;;;;;;;28.65;4.53;;;7.00;99.90;;;;;;5051982;28;20487;-66
2022/01/09 05:39:12;;;;;;;24.27;4.40;;;6.70;99.90;;;;;;5067934;28;20040;-66
2022/01/09 05:41:40;;;;;;;26.63;3.80;;;5.90;99.90;;;;;;5050831;28;20060;-65
2022/01/09 05:44:06;;;;;;;29.35;4.63;;;5.90;99.90;;;;;;5051363;28;20049;-66
2022/01/09 05:46:32;;;;;;;29.08;5.18;;;5.90;99.90;;;;;;5067964;28;20094;-66
2022/01/09 05:48:57;;;;;;;32.58;4.53;;;5.80;99.90;;;;;;5060524;28;20585;-65
2022/01/09 05:51:23;;;;;;;31.80;5.07;;;5.80;99.90;;;;;;5050746;28;20411;-66
2022/01/09 05:53:48;;;;;;;30.48;4.00;;;5.80;99.90;;;;;;5068779;28;20113;-66
2022/01/09 05:56:14;;;;;;;32.22;4.93;;;5.80;99.90;;;;;;5068334;28;20047;-66
2022/01/09 05:58:40;;;;;;;31.92;4.90;;;5.80;99.90;;;;;;5068691;28;20045;-66
2022/01/09 06:01:06;;;;;;;27.17;4.65;;;6.20;99.90;;;;;;5049842;28;20074;-65
2022/01/09 06:03:32;;;;;;;30.85;3.67;;;5.70;99.90;;;;;;5068343;28;20576;-66
2022/01/09 06:05:58;;;;;;;28.40;4.35;;;5.80;99.90;;;;;;5061777;28;20132;-66
2022/01/09 06:08:24;;;;;;;31.33;3.95;;;5.60;99.90;;;;;;5046361;28;20418;-66
2022/01/09 06:10:50;;;;;;;35.85;6.20;;;5.70;99.90;;;;;;5050403;28;20102;-66
2022/01/09 06:13:16;;;;;;;34.42;6.00;;;5.70;99.90;;;;;;5067264;28;20523;-66
2022/01/09 06:15:41;;;;;;;32.22;5.18;;;5.70;99.90;;;;;;5068794;28;20069;-66
2022/01/09 06:18:07;;;;;;;24.55;4.05;;;5.60;99.90;;;;;;5067905;28;20423;-65
2022/01/09 06:20:32;;;;;;;24.25;4.45;;;5.70;99.90;;;;;;5062955;28;20045;-66
2022/01/09 06:22:58;;;;;;;28.75;3.78;;;5.70;99.90;;;;;;5066758;28;20048;-66
2022/01/09 06:25:24;;;;;;;24.80;4.13;;;5.70;99.90;;;;;;5050227;28;20114;-66
2022/01/09 06:27:49;;;;;;;24.85;4.05;;;5.70;99.90;;;;;;5067261;28;20052;-65
2022/01/09 06:30:15;;;;;;;19.23;3.65;;;5.70;99.90;;;;;;5068969;28;20412;-66
2022/01/09 06:32:41;;;;;;;24.67;3.92;;;6.00;99.90;;;;;;5054401;28;20060;-66
2022/01/09 06:35:07;;;;;;;27.05;4.03;;;5.60;99.90;;;;;;5054205;28;20040;-66
2022/01/09 06:37:33;;;;;;;21.42;3.30;;;5.60;99.90;;;;;;5053117;28;20056;-66
2022/01/09 06:39:59;;;;;;;31.42;4.53;;;5.60;99.90;;;;;;5049439;28;20044;-66
2022/01/09 06:42:25;;;;;;;21.65;3.58;;;5.60;99.90;;;;;;5067312;28;20053;-66
2022/01/09 06:44:51;;;;;;;22.25;4.38;;;5.60;99.90;;;;;;5068292;28;20040;-66
2022/01/09 06:47:17;;;;;;;25.00;3.53;;;5.60;99.90;;;;;;5049407;28;20046;-66
2022/01/09 06:49:43;;;;;;;26.27;3.45;;;5.60;99.90;;;;;;5049789;28;20140;-66
2022/01/09 06:52:08;;;;;;;23.48;3.92;;;5.60;99.90;;;;;;5050106;28;20059;-66
2022/01/09 06:54:34;;;;;;;33.17;4.18;;;5.50;99.90;;;;;;5067798;28;20089;-66
2022/01/09 06:57:00;;;;;;;26.50;4.07;;;5.60;99.90;;;;;;5063945;28;20511;-66
2022/01/09 06:59:26;;;;;;;30.10;4.82;;;5.50;99.90;;;;;;5049342;28;20095;-66
2022/01/09 07:01:52;;;;;;;26.20;4.13;;;5.50;99.90;;;;;;5062378;28;20077;-66
2022/01/09 07:04:18;;;;;;;24.40;3.83;;;5.50;99.90;;;;;;5054495;28;20070;-66
2022/01/09 07:06:43;;;;;;;22.45;3.78;;;5.60;99.90;;;;;;5067875;28;20056;-66
2022/01/09 07:09:09;;;;;;;27.90;3.83;;;5.60;99.90;;;;;;5065975;28;20053;-66
2022/01/09 07:11:34;;;;;;;25.88;3.70;;;5.60;99.90;;;;;;5066389;28;20127;-66
2022/01/09 07:14:00;;;;;;;22.95;3.95;;;5.60;99.90;;;;;;5068386;28;20056;-65
2022/01/09 07:16:27;;;;;;;19.70;3.65;;;5.50;99.90;;;;;;5060592;28;20056;-66
2022/01/09 07:18:53;;;;;;;23.50;3.97;;;5.60;99.90;;;;;;5068253;28;20054;-66
2022/01/09 07:21:18;;;;;;;25.75;4.00;;;5.40;99.90;;;;;;5067866;28;20127;-67
2022/01/09 07:23:44;;;;;;;24.13;3.17;;;5.60;99.90;;;;;;5067746;28;20044;-66
2022/01/09 07:26:10;;;;;;;19.83;3.60;;;5.50;99.90;;;;;;5066537;28;20060;-66
2022/01/09 07:28:36;;;;;;;19.50;3.30;;;5.70;99.90;;;;;;5030586;28;20110;-66
2022/01/09 07:31:01;;;;;;;17.38;3.22;;;5.50;99.90;;;;;;5058287;28;20055;-66
2022/01/09 07:33:28;;;;;;;25.10;3.78;;;5.50;99.90;;;;;;5071610;28;20449;-67
2022/01/09 07:35:54;;;;;;;23.17;3.50;;;5.40;99.90;;;;;;5071514;28;20056;-66
2022/01/09 07:38:19;;;;;;;23.42;3.88;;;5.50;99.90;;;;;;5071442;28;20424;-67
2022/01/09 07:40:47;;;;;;;27.15;3.70;;;5.50;99.90;;;;;;5073619;28;20612;-66
2022/01/09 07:43:13;;;;;;;26.38;3.67;;;5.50;99.90;;;;;;5073546;28;20055;-66
2022/01/09 07:45:39;;;;;;;26.90;3.55;;;5.40;99.90;;;;;;5073262;28;20048;-66
2022/01/09 07:48:06;;;;;;;25.10;3.83;;;5.40;99.90;;;;;;5052866;28;20491;-65
2022/01/09 07:50:31;;;;;;;19.63;3.67;;;5.40;99.90;;;;;;5071819;28;20057;-67
2022/01/09 07:52:57;;;;;;;18.30;3.55;;;5.40;99.90;;;;;;5070525;28;20189;-67
2022/01/09 07:55:23;;;;;;;22.27;3.70;;;5.50;99.90;;;;;;5071305;28;20053;-66
2022/01/09 07:57:50;;;;;;;18.23;3.70;;;4.40;99.90;;;;;;5071287;28;20048;-67
2022/01/09 08:00:17;;;;;;;23.75;3.42;;;6.30;99.90;;;;;;5052870;28;20431;-67
2022/01/09 08:02:43;;;;;;;21.73;3.75;;;5.40;99.90;;;;;;5057897;28;20132;-67
2022/01/09 08:05:10;;;;;;;20.70;3.55;;;5.40;99.90;;;;;;5069967;28;20044;-67
2022/01/09 08:07:36;;;;;;;21.20;3.72;;;5.40;99.90;;;;;;5070731;28;20060;-67
2022/01/09 08:10:02;;;;;;;20.25;3.53;;;5.40;99.90;;;;;;5070412;28;20098;-67
2022/01/09 08:12:28;;;;;;;22.80;4.15;;;5.40;99.90;;;;;;5070311;28;20114;-67
2022/01/09 08:14:54;;;;;;;25.15;3.97;;;5.40;99.90;;;;;;5053532;28;20492;-66
2022/01/09 08:17:19;;;;;;;22.35;3.47;;;5.40;99.90;;;;;;5038943;28;20091;-67
2022/01/09 08:19:45;;;;;;;13.77;3.28;;;5.30;99.90;;;;;;5065030;28;20040;-66
2022/01/09 08:22:10;;;;;;;23.08;3.80;;;5.40;99.90;;;;;;5070891;28;20055;-67
2022/01/09 08:24:38;;;;;;;22.95;4.40;;;5.30;99.90;;;;;;5070905;28;20052;-67
2022/01/09 08:27:05;;;;;;;16.98;3.80;;;5.40;99.90;;;;;;5070031;28;20052;-67
2022/01/09 08:29:31;;;;;;;21.33;3.95;;;5.30;99.90;;;;;;5052836;28;20059;-67
2022/01/09 08:31:57;;;;;;;17.15;3.25;;;5.30;99.90;;;;;;5070246;28;20147;-67
2022/01/09 08:34:22;;;;;;;13.88;3.47;;;5.30;99.90;;;;;;5068525;28;20405;-66
2022/01/09 08:36:48;;;;;;;18.30;3.38;;;5.30;99.90;;;;;;5052940;28;20456;-67
2022/01/09 08:39:14;;;;;;;22.60;3.50;;;6.60;99.90;;;;;;5052353;28;20146;-67
2022/01/09 08:41:40;;;;;;;21.30;3.72;;;5.30;99.90;;;;;;5069413;28;20135;-67
2022/01/09 08:44:06;;;;;;;15.90;3.30;;;5.40;99.90;;;;;;5071764;28;20535;-66
2022/01/09 08:46:34;;;;;;;18.02;3.67;;;5.40;99.90;;;;;;5069365;28;20049;-67
2022/01/09 08:49:01;;;;;;;15.15;3.28;;;5.30;99.90;;;;;;5059898;28;20408;-67
2022/01/09 08:51:27;;;;;;;19.08;3.60;;;5.40;99.90;;;;;;5050291;28;20449;-67
2022/01/09 08:53:53;;;;;;;18.95;3.08;;;5.40;99.90;;;;;;5063861;28;20501;-67
2022/01/09 08:56:20;;;;;;;16.60;2.85;;;5.40;99.90;;;;;;5071616;28;20054;-67
2022/01/09 08:58:47;;;;;;;14.00;3.42;;;5.50;99.90;;;;;;5070985;28;20048;-66
2022/01/09 09:01:13;;;;;;;17.70;3.00;;;5.50;99.90;;;;;;5035010;28;20510;-67
2022/01/09 09:03:41;;;;;;;10.02;2.55;;;5.60;99.90;;;;;;5069623;28;20044;-66
2022/01/09 09:06:14;;;;;;;12.77;2.67;;;5.70;99.90;;;;;;5070357;28;20117;-66
2022/01/09 09:08:42;;;;;;;14.88;3.65;;;5.70;99.90;;;;;;5051854;28;20110;-67
2022/01/09 09:11:09;;;;;;;21.83;3.10;;;5.70;99.90;;;;;;5068864;28;20049;-67
2022/01/09 09:13:34;;;;;;;13.85;2.72;;;5.70;99.90;;;;;;5051965;28;20048;-68
2022/01/09 09:16:00;;;;;;;18.88;2.90;;;5.70;99.90;;;;;;5070243;28;20124;-67
2022/01/09 09:18:26;;;;;;;17.77;2.72;;;5.80;99.90;;;;;;5053319;28;20051;-67
2022/01/09 09:20:52;;;;;;;16.45;2.55;;;5.90;99.90;;;;;;5045400;28;20049;-67
2022/01/09 09:23:18;;;;;;;12.38;3.85;;;5.90;99.90;;;;;;5060803;28;20109;-67
2022/01/09 09:25:44;;;;;;;19.42;2.95;;;6.00;99.90;;;;;;5069515;28;20121;-68
2022/01/09 09:28:10;;;;;;;14.70;3.10;;;6.10;99.90;;;;;;5051851;28;20132;-67
2022/01/09 09:30:36;;;;;;;16.00;2.97;;;6.30;99.90;;;;;;5069180;28;20516;-67
2022/01/09 09:33:03;;;;;;;17.30;3.03;;;6.40;99.90;;;;;;5068702;28;20051;-67
2022/01/09 09:35:29;;;;;;;12.18;2.88;;;6.50;99.90;;;;;;5069953;28;20102;-67
2022/01/09 09:37:55;;;;;;;8.23;1.98;;;6.50;99.90;;;;;;5068706;28;20044;-66
2022/01/09 09:40:20;;;;;;;14.10;2.75;;;6.60;99.90;;;;;;5069011;28;20048;-65
2022/01/09 09:42:46;;;;;;;17.95;2.60;;;6.60;99.90;;;;;;5069110;28;20480;-66
2022/01/09 09:45:13;;;;;;;13.50;2.75;;;6.70;99.90;;;;;;5069106;28;20189;-66
2022/01/09 09:47:40;;;;;;;9.98;2.20;;;6.50;99.90;;;;;;5050868;28;20106;-66
2022/01/09 09:50:10;;;;;;;10.40;2.30;;;6.70;99.90;;;;;;5069008;28;20041;-66
2022/01/09 09:52:36;;;;;;;11.40;2.65;;;6.70;99.90;;;;;;5034786;28;20420;-66
2022/01/09 09:55:02;;;;;;;10.15;2.55;;;6.70;99.90;;;;;;5050584;28;20063;-66
2022/01/09 09:57:28;;;;;;;11.32;2.30;;;6.70;99.90;;;;;;5068903;28;20488;-66
2022/01/09 10:00:05;;;;;;;15.43;2.92;;;6.60;99.90;;;;;;5068099;28;20053;-66
2022/01/09 10:02:52;;;;;;;12.50;2.80;;;6.50;99.90;;;;;;5068138;28;20131;-66
2022/01/09 10:05:22;;;;;;;11.00;2.55;;;6.50;99.90;;;;;;5048261;28;20049;-66
2022/01/09 10:07:48;;;;;;;11.48;2.80;;;6.50;99.90;;;;;;5038849;28;20057;-66
2022/01/09 10:10:16;;;;;;;11.27;3.38;;;6.60;99.90;;;;;;5049301;28;20595;-66
2022/01/09 10:12:44;;;;;;;10.52;2.67;;;6.50;99.90;;;;;;5069637;28;20047;-66
2022/01/09 10:15:14;;;;;;;13.73;3.13;;;6.60;99.90;;;;;;5052752;28;20492;-65
2022/01/09 10:17:42;;;;;;;9.75;2.67;;;6.80;99.90;;;;;;5052644;28;20369;-65
2022/01/09 10:20:20;;;;;;;15.48;2.90;;;6.70;99.90;;;;;;5048517;28;20512;-67
2022/01/09 10:22:54;;;;;;;11.50;2.47;;;6.70;99.90;;;;;;5049125;28;20033;-67
2022/01/09 10:25:36;;;;;;;13.13;2.67;;;6.70;99.90;;;;;;5048829;28;20060;-67
2022/01/09 10:28:12;;;;;;;11.88;2.40;;;6.70;99.90;;;;;;5042284;28;20504;-68
2022/01/09 10:30:39;;;;;;;;;;;6.90;99.90;;;;;;5052837;28;20044;-67
2022/01/09 10:33:09;;;;;;;12.88;2.72;;;7.00;99.90;;;;;;5052957;28;19920;-67
2022/01/09 10:35:35;;;;;;;11.95;2.65;;;7.20;99.90;;;;;;5071245;28;20052;-67
2022/01/09 10:38:08;;;;;;;15.23;2.75;;;7.40;99.90;;;;;;5049578;28;20127;-67
2022/01/09 10:40:36;;;;;;;13.32;3.40;;;7.70;99.90;;;;;;5060574;28;20052;-67
2022/01/09 10:43:12;;;;;;;16.92;2.80;;;8.00;99.90;;;;;;5052001;28;20044;-67
2022/01/09 10:45:44;;;;;;;12.13;3.00;;;8.20;99.90;;;;;;5067378;28;20319;-67
2022/01/09 10:48:34;;;;;;;11.18;2.92;;;8.40;99.90;;;;;;5046836;28;20417;-66
2022/01/09 10:51:02;;;;;;;15.73;2.97;;;8.70;99.90;;;;;;5046807;28;20062;-67
2022/01/09 10:53:31;;;;;;;9.35;2.95;;;8.70;99.90;;;;;;5050033;28;20075;-67
2022/01/09 10:56:10;;;;;;;13.77;3.13;;;8.80;99.90;;;;;;5067189;28;20061;-67
2022/01/09 10:58:42;;;;;;;11.70;2.88;;;8.70;99.90;;;;;;5068892;28;20052;-67
2022/01/09 11:01:23;;;;;;;11.52;2.75;;;8.80;99.90;;;;;;5066849;28;20500;-65
2022/01/09 11:03:54;;;;;;;16.63;3.42;;;8.70;99.90;;;;;;5050477;28;20056;-67
2022/01/09 11:06:21;;;;;;;15.77;4.00;;;8.50;99.90;;;;;;5047523;28;20469;-67
2022/01/09 11:08:47;;;;;;;13.70;2.85;;;8.30;99.90;;;;;;5047536;28;20045;-67
2022/01/09 11:11:22;;;;;;;15.30;3.35;;;8.00;99.90;;;;;;5047210;28;20053;-67
2022/01/09 11:13:49;;;;;;;12.25;2.90;;;7.90;99.90;;;;;;5048383;28;20049;-67
2022/01/09 11:16:34;;;;;;;12.60;3.25;;;7.80;99.90;;;;;;5012610;28;20468;-67
2022/01/09 11:19:04;;;;;;;12.82;3.20;;;7.70;99.90;;;;;;5030489;28;20083;-66
2022/01/09 11:21:30;;;;;;;13.95;2.75;;;7.60;99.90;;;;;;5029370;28;20489;-67
2022/01/09 11:24:01;;;;;;;16.00;3.03;;;7.50;99.90;;;;;;5047431;28;20045;-67
2022/01/09 11:26:36;;;;;;;11.98;2.70;;;7.50;99.90;;;;;;5047226;28;20067;-67
2022/01/09 11:29:06;;;;;;;7.67;2.07;;;7.60;99.90;;;;;;5049938;28;20447;-67
2022/01/09 11:31:53;;;;;;;8.68;2.63;;;7.50;99.90;;;;;;5029314;28;20049;-67
2022/01/09 11:34:34;;;;;;;10.60;2.25;;;7.40;99.90;;;;;;5030548;28;20092;-67
2022/01/09 11:37:22;;;;;;;10.52;2.35;;;7.40;99.90;;;;;;5029776;28;20053;-65
2022/01/09 11:39:47;;;;;;;13.23;3.17;;;7.70;99.90;;;;;;5049007;28;20412;-66
2022/01/09 11:42:15;;;;;;;14.48;2.70;;;7.90;99.90;;;;;;5064575;28;20114;-65
2022/01/09 11:44:49;;;;;;;10.60;2.58;;;8.20;99.90;;;;;;5047770;28;20052;-65
2022/01/09 11:47:16;;;;;;;15.27;2.38;;;8.20;99.90;;;;;;5063205;28;20063;-65
2022/01/09 11:49:54;;;;;;;12.75;3.40;;;8.30;99.90;;;;;;5069183;28;20464;-65
2022/01/09 11:52:30;;;;;;;12.82;2.83;;;8.20;99.90;;;;;;5066647;28;20512;-65
2022/01/09 11:55:01;;;;;;;13.50;3.20;;;8.00;99.90;;;;;;5066897;28;20400;-66
2022/01/09 11:57:46;;;;;;;11.90;2.58;;;8.00;99.90;;;;;;5063375;28;20079;-66
2022/01/09 12:00:51;;;;;;;12.63;2.33;;;7.90;99.90;;;;;;5013071;28;20057;-65
2022/01/09 12:03:26;;;;;;;14.88;2.60;;;8.00;99.90;;;;;;5046601;28;20057;-66
2022/01/09 12:06:04;;;;;;;13.38;2.83;;;8.40;99.90;;;;;;5041440;28;20358;-65
2022/01/09 12:09:00;;;;;;;13.27;2.75;;;9.10;99.90;;;;;;5067667;28;20048;-65
2022/01/09 12:12:03;;;;;;;17.70;2.83;;;9.90;99.90;;;;;;5062167;28;20076;-65
2022/01/09 12:14:56;;;;;;;15.90;3.35;;;10.30;99.90;;;;;;5058412;28;20049;-65
2022/01/09 12:17:22;;;;;;;12.68;3.13;;;10.30;99.90;;;;;;5048753;28;20380;-65
2022/01/09 12:20:12;;;;;;;12.40;3.00;;;10.10;99.90;;;;;;5070752;28;20052;-65
2022/01/09 12:22:45;;;;;;;12.57;3.50;;;9.80;99.90;;;;;;5070787;28;20115;-65
2022/01/09 12:25:26;;;;;;;11.68;2.80;;;9.80;99.90;;;;;;5053005;28;20100;-64
2022/01/09 12:28:10;;;;;;;11.65;2.50;;;9.80;99.90;;;;;;5057172;28;20063;-67
2022/01/09 12:30:38;;;;;;;7.53;2.78;;;10.00;99.90;;;;;;5051108;28;20079;-65
2022/01/09 12:33:25;;;;;;;11.45;2.42;;;10.00;99.90;;;;;;5066087;28;20197;-65
2022/01/09 12:36:04;;;;;;;14.43;2.63;;;10.00;99.90;;;;;;5054677;28;20048;-70
2022/01/09 12:38:31;;;;;;;15.15;2.97;;;9.70;99.90;;;;;;5051921;28;20048;-70
2022/01/09 12:41:09;;;;;;;11.20;2.25;;;9.50;99.90;;;;;;5049643;28;20601;-70
2022/01/09 12:43:37;;;;;;;11.52;2.70;;;9.30;99.90;;;;;;5068563;28;20119;-70
2022/01/09 12:46:17;;;;;;;11.68;2.33;;;9.30;99.90;;;;;;5086684;28;20052;-70
2022/01/09 12:48:51;;;;;;;11.25;2.38;;;9.60;99.90;;;;;;5061703;28;20064;-70
2022/01/09 12:51:17;;;;;;;12.15;2.65;;;10.50;99.90;;;;;;5066211;28;20131;-70
2022/01/09 12:53:45;;;;;;;11.10;2.80;;;11.30;99.90;;;;;;5048531;28;20532;-70